Time;durP1;ratioP1;P1;durP2;ratioP2;P2;SDS_P1;SDS_P2;PMS_P1;PMS_P2;Temp;Humidity;BMP_temperature;BMP_pressure;BME280_temperature;BME280_humidity;BME280_pressure;Samples;Min_cycle;Max_cycle;Signal;HPM_P1;HPM_P2
2023/05/28 00:00:44;;;;;;;15.00;9.90;;;;;;;11.70;100.00;101894.72;5088262;27;20418;-66
2023/05/28 00:03:09;;;;;;;16.95;10.40;;;;;;;11.67;100.00;101892.00;5090089;28;20661;-66
2023/05/28 00:05:35;;;;;;;12.57;8.90;;;;;;;11.63;100.00;101890.06;5093619;28;20038;-66
2023/05/28 00:08:00;;;;;;;14.82;9.90;;;;;;;11.56;100.00;101888.94;5085325;28;20028;-65
2023/05/28 00:10:26;;;;;;;12.20;10.15;;;;;;;11.51;100.00;101886.09;5094628;28;20020;-65
2023/05/28 00:12:51;;;;;;;14.98;9.75;;;;;;;11.49;100.00;101882.56;5081033;28;20031;-66
2023/05/28 00:15:16;;;;;;;12.70;9.90;;;;;;;11.49;100.00;101876.50;5088655;28;20028;-66
2023/05/28 00:17:42;;;;;;;16.40;9.45;;;;;;;11.51;100.00;101880.91;5087959;28;20024;-66
2023/05/28 00:20:07;;;;;;;14.75;10.13;;;;;;;11.57;100.00;101877.72;5087429;28;20056;-66
2023/05/28 00:22:33;;;;;;;14.73;10.13;;;;;;;11.55;100.00;101876.75;5090469;28;20025;-66
2023/05/28 00:24:58;;;;;;;15.73;10.13;;;;;;;11.51;100.00;101875.72;5098446;28;20051;-65
2023/05/28 00:27:23;;;;;;;16.67;11.15;;;;;;;11.44;100.00;101878.84;5089203;28;20026;-65
2023/05/28 00:29:48;;;;;;;16.00;10.20;;;;;;;11.35;100.00;101881.06;5096145;28;20036;-65
2023/05/28 00:32:14;;;;;;;16.02;10.55;;;;;;;11.32;100.00;101867.94;5086621;28;20034;-66
2023/05/28 00:34:39;;;;;;;15.07;9.73;;;;;;;11.26;100.00;101874.63;5084520;28;20028;-66
2023/05/28 00:37:04;;;;;;;15.43;10.93;;;;;;;11.24;100.00;101878.84;5091782;28;20369;-66
2023/05/28 00:39:30;;;;;;;17.38;10.35;;;;;;;11.19;100.00;101872.56;5102717;28;20153;-66
2023/05/28 00:42:08;;;;;;;15.23;10.35;;;;;;;11.16;100.00;101877.59;5090481;28;20028;-65
2023/05/28 00:44:34;;;;;;;12.18;9.05;;;;;;;11.14;100.00;101881.84;5094913;28;20032;-66
2023/05/28 00:47:00;;;;;;;17.13;10.35;;;;;;;11.14;100.00;101885.31;5105150;28;20028;-66
2023/05/28 00:49:26;;;;;;;12.68;9.70;;;;;;;11.12;100.00;101886.06;5100403;28;20074;-66
2023/05/28 00:51:51;;;;;;;14.88;10.70;;;;;;;11.07;100.00;101885.84;5104582;28;20028;-66
2023/05/28 00:54:17;;;;;;;15.52;10.48;;;;;;;11.06;100.00;101889.28;5108663;28;20058;-66
2023/05/28 00:56:43;;;;;;;16.38;10.38;;;;;;;11.03;100.00;101882.22;5106377;28;20035;-66
2023/05/28 00:59:10;;;;;;;15.45;11.15;;;;;;;11.01;100.00;101883.00;5097227;28;20069;-66
2023/05/28 01:01:36;;;;;;;14.25;10.52;;;;;;;10.98;100.00;101878.53;5106946;28;20027;-66
2023/05/28 01:04:02;;;;;;;16.67;10.38;;;;;;;10.96;100.00;101882.75;5090702;28;20032;-66
2023/05/28 01:06:29;;;;;;;20.35;12.20;;;;;;;10.96;100.00;101879.25;5102831;28;20035;-66
2023/05/28 01:08:55;;;;;;;12.75;9.75;;;;;;;10.95;100.00;101873.22;5089091;28;20394;-66
2023/05/28 01:11:21;;;;;;;16.35;10.15;;;;;;;10.96;100.00;101874.97;5103570;28;20062;-65
2023/05/28 01:13:47;;;;;;;12.52;9.77;;;;;;;10.90;100.00;101869.50;5097156;28;20020;-66
2023/05/28 01:16:13;;;;;;;14.35;9.88;;;;;;;10.87;100.00;101869.34;5085427;28;20166;-65
2023/05/28 01:18:39;;;;;;;13.98;9.82;;;;;;;10.85;100.00;101881.38;5088935;28;20489;-65
2023/05/28 01:21:06;;;;;;;17.70;10.25;;;;;;;10.84;100.00;101871.81;5093148;28;20031;-66
2023/05/28 01:23:40;;;;;;;22.15;10.23;;;;;;;10.85;100.00;101869.28;5088549;28;20028;-65
2023/05/28 01:26:07;;;;;;;16.23;11.50;;;;;;;10.85;100.00;101871.00;5088375;28;20845;-66
2023/05/28 01:28:32;;;;;;;12.80;9.90;;;;;;;10.82;100.00;101876.91;5082019;28;20479;-65
2023/05/28 01:30:58;;;;;;;12.63;9.98;;;;;;;10.79;100.00;101866.41;5092051;28;20062;-66
2023/05/28 01:33:24;;;;;;;15.35;10.32;;;;;;;10.75;100.00;101874.84;5088840;28;20027;-66
2023/05/28 01:35:54;;;;;;;12.90;9.93;;;;;;;10.74;100.00;101878.28;5088804;28;20114;-66
2023/05/28 01:38:21;;;;;;;12.77;9.73;;;;;;;10.74;100.00;101873.94;5091475;28;20057;-65
2023/05/28 01:40:48;;;;;;;13.05;10.15;;;;;;;10.73;100.00;101877.38;5090270;28;20313;-65
2023/05/28 01:43:14;;;;;;;17.27;10.50;;;;;;;10.73;100.00;101874.78;5084145;28;20028;-66
2023/05/28 01:45:40;;;;;;;16.88;10.52;;;;;;;10.71;100.00;101876.41;5088092;28;20441;-66
2023/05/28 01:48:06;;;;;;;15.63;10.23;;;;;;;10.72;100.00;101880.75;5100827;28;20019;-66
2023/05/28 01:50:32;;;;;;;12.25;9.85;;;;;;;10.74;100.00;101886.91;5090501;28;20042;-66
2023/05/28 01:52:59;;;;;;;16.65;11.05;;;;;;;10.73;100.00;101886.84;5092954;28;20097;-66
2023/05/28 01:55:25;;;;;;;16.45;10.45;;;;;;;10.73;100.00;101882.56;5099335;28;20436;-65
2023/05/28 01:57:50;;;;;;;14.10;10.25;;;;;;;10.75;100.00;101880.03;5094256;28;20106;-66
2023/05/28 02:00:16;;;;;;;13.82;9.68;;;;;;;10.75;100.00;101875.75;5093009;28;20030;-66
2023/05/28 02:02:42;;;;;;;16.48;10.07;;;;;;;10.76;100.00;101872.31;5098655;28;20055;-65
2023/05/28 02:05:08;;;;;;;19.50;10.30;;;;;;;10.78;100.00;101877.59;5095726;28;20409;-66
2023/05/28 02:07:33;;;;;;;13.27;9.88;;;;;;;10.78;100.00;101870.69;5101114;28;20057;-66
2023/05/28 02:09:58;;;;;;;14.70;9.73;;;;;;;10.77;100.00;101876.72;5102939;28;20031;-65
2023/05/28 02:12:23;;;;;;;14.45;9.30;;;;;;;10.77;100.00;101868.94;5101135;28;20115;-66
2023/05/28 02:14:49;;;;;;;14.75;9.63;;;;;;;10.76;100.00;101867.13;5100489;28;20386;-66
2023/05/28 02:17:17;;;;;;;14.68;10.75;;;;;;;10.74;100.00;101857.53;5106384;28;20026;-65
2023/05/28 02:19:43;;;;;;;12.60;9.73;;;;;;;10.71;100.00;101862.53;5104041;28;20023;-66
2023/05/28 02:22:11;;;;;;;16.00;10.30;;;;;;;10.66;100.00;101857.16;5105357;28;20011;-66
2023/05/28 02:24:41;;;;;;;13.38;10.18;;;;;;;10.60;100.00;101854.25;5105688;28;20076;-66
2023/05/28 02:27:07;;;;;;;13.93;9.65;;;;;;;10.55;100.00;101852.34;5105470;28;20047;-66
2023/05/28 02:29:33;;;;;;;13.13;10.13;;;;;;;10.52;100.00;101852.19;5095044;28;20575;-66
2023/05/28 02:31:59;;;;;;;12.88;9.65;;;;;;;10.47;100.00;101853.63;5105887;28;20023;-66
2023/05/28 02:34:25;;;;;;;12.27;8.80;;;;;;;10.44;100.00;101845.72;5091169;28;20498;-66
2023/05/28 02:36:52;;;;;;;12.85;9.38;;;;;;;10.42;100.00;101844.75;5084189;28;20024;-66
2023/05/28 02:39:18;;;;;;;14.52;9.40;;;;;;;10.36;100.00;101839.28;5080269;28;20028;-66
2023/05/28 02:41:43;;;;;;;16.33;9.35;;;;;;;10.33;100.00;101840.91;5084932;28;20093;-66
2023/05/28 02:44:08;;;;;;;12.60;8.93;;;;;;;10.30;100.00;101858.88;5101067;28;20429;-66
2023/05/28 02:46:33;;;;;;;12.82;9.40;;;;;;;10.30;100.00;101855.41;5085987;28;20052;-65
2023/05/28 02:48:59;;;;;;;12.10;9.80;;;;;;;10.28;100.00;101860.50;5080960;28;20072;-65
2023/05/28 02:51:24;;;;;;;14.55;9.23;;;;;;;10.24;100.00;101858.56;5091672;28;20087;-65
2023/05/28 02:53:49;;;;;;;12.60;8.75;;;;;;;10.23;100.00;101863.69;5087007;28;20354;-65
2023/05/28 02:56:15;;;;;;;13.80;9.68;;;;;;;10.21;100.00;101866.19;5092689;28;20020;-66
2023/05/28 02:58:40;;;;;;;16.67;10.02;;;;;;;10.17;100.00;101859.06;5090475;28;20023;-66
2023/05/28 03:01:06;;;;;;;14.57;10.00;;;;;;;10.12;100.00;101861.44;5094217;28;20055;-66
2023/05/28 03:03:31;;;;;;;14.82;9.95;;;;;;;10.06;100.00;101862.03;5093348;28;20036;-66
2023/05/28 03:05:57;;;;;;;12.70;8.90;;;;;;;10.02;100.00;101867.84;5096440;28;20027;-66
2023/05/28 03:08:22;;;;;;;11.10;9.00;;;;;;;9.98;100.00;101863.34;5100998;28;20027;-66
2023/05/28 03:10:47;;;;;;;17.30;11.38;;;;;;;9.95;100.00;101864.06;5096197;28;20012;-66
2023/05/28 03:13:13;;;;;;;16.45;9.13;;;;;;;9.94;100.00;101862.28;5097845;28;20020;-66
2023/05/28 03:15:38;;;;;;;18.13;10.50;;;;;;;9.91;100.00;101861.25;5101404;28;20024;-65
2023/05/28 03:18:04;;;;;;;14.50;10.18;;;;;;;9.87;100.00;101859.31;5103132;28;20110;-65
2023/05/28 03:20:30;;;;;;;16.65;9.98;;;;;;;9.84;100.00;101860.91;5101377;28;20027;-65
2023/05/28 03:22:56;;;;;;;14.70;10.15;;;;;;;9.81;100.00;101860.78;5100524;28;20039;-66
2023/05/28 03:25:23;;;;;;;15.75;9.70;;;;;;;9.75;100.00;101860.44;5097733;28;20362;-66
2023/05/28 03:27:48;;;;;;;16.65;10.18;;;;;;;9.71;100.00;101853.34;5088060;28;20445;-66
2023/05/28 03:30:14;;;;;;;16.42;9.98;;;;;;;9.65;100.00;101858.19;5078450;28;20025;-66
2023/05/28 03:32:40;;;;;;;12.95;9.30;;;;;;;9.61;100.00;101852.84;5093637;28;20056;-66
2023/05/28 03:35:05;;;;;;;14.18;9.45;;;;;;;9.58;100.00;101852.72;5091261;28;20035;-66
2023/05/28 03:37:31;;;;;;;14.63;9.32;;;;;;;9.56;100.00;101854.31;5098061;28;20012;-66
2023/05/28 03:39:56;;;;;;;15.52;10.65;;;;;;;9.55;100.00;101856.84;5104487;28;20024;-66
2023/05/28 03:42:22;;;;;;;9.75;7.97;;;;;;;9.55;100.00;101852.53;5102012;28;20027;-66
2023/05/28 03:44:47;;;;;;;10.98;9.13;;;;;;;9.55;100.00;101862.00;5094973;28;20028;-66
2023/05/28 03:47:12;;;;;;;12.77;8.98;;;;;;;9.56;100.00;101863.78;5090090;28;20107;-65
2023/05/28 03:49:38;;;;;;;13.05;9.18;;;;;;;9.59;100.00;101859.66;5107111;28;20524;-66
2023/05/28 03:52:03;;;;;;;14.40;9.40;;;;;;;9.58;100.00;101863.06;5106796;28;20023;-66
2023/05/28 03:54:29;;;;;;;13.82;8.63;;;;;;;9.59;100.00;101869.09;5107257;28;20053;-65
2023/05/28 03:56:54;;;;;;;12.68;9.18;;;;;;;9.56;100.00;101875.03;5107094;28;20031;-66
2023/05/28 03:59:19;;;;;;;12.45;8.63;;;;;;;9.56;100.00;101872.44;5106538;28;20031;-65
2023/05/28 04:01:45;;;;;;;12.80;8.95;;;;;;;9.59;100.00;101870.00;5102028;28;20105;-66
2023/05/28 04:04:10;;;;;;;15.57;9.65;;;;;;;9.58;100.00;101868.22;5082203;28;20019;-66
2023/05/28 04:06:36;;;;;;;14.82;9.60;;;;;;;9.59;100.00;101866.50;5094327;28;20046;-66
2023/05/28 04:09:01;;;;;;;17.45;9.48;;;;;;;9.59;100.00;101877.75;5090661;28;20095;-65
2023/05/28 04:11:29;;;;;;;16.13;9.35;;;;;;;9.60;100.00;101871.81;5089025;28;20093;-65
2023/05/28 04:13:55;;;;;;;16.40;9.60;;;;;;;9.58;100.00;101873.41;5082508;28;20016;-66
2023/05/28 04:16:22;;;;;;;13.18;9.13;;;;;;;9.58;100.00;101870.81;5094856;28;20020;-66
2023/05/28 04:18:49;;;;;;;13.63;9.32;;;;;;;9.57;100.00;101873.34;5092262;28;20432;-66
2023/05/28 04:21:14;;;;;;;14.68;9.13;;;;;;;9.57;100.00;101869.03;5093432;28;20020;-66
2023/05/28 04:23:39;;;;;;;14.77;9.57;;;;;;;9.61;100.00;101881.31;5096609;28;20078;-66
2023/05/28 04:26:06;;;;;;;13.73;9.32;;;;;;;9.66;100.00;101883.28;5103312;28;20619;-65
2023/05/28 04:28:33;;;;;;;17.20;9.30;;;;;;;9.70;100.00;101888.69;5100255;28;20360;-66
2023/05/28 04:31:00;;;;;;;14.45;9.82;;;;;;;9.72;100.00;101886.16;5103329;28;20050;-66
2023/05/28 04:33:28;;;;;;;14.43;9.85;;;;;;;9.75;100.00;101881.16;5093347;28;20024;-66
2023/05/28 04:35:57;;;;;;;12.38;8.98;;;;;;;9.77;100.00;101883.84;5095854;28;20420;-66
2023/05/28 04:38:23;;;;;;;10.73;8.43;;;;;;;9.80;100.00;101890.06;5104850;27;20110;-66
2023/05/28 04:40:49;;;;;;;11.52;9.38;;;;;;;9.83;100.00;101900.56;5107185;28;20106;-66
2023/05/28 04:43:16;;;;;;;12.80;9.55;;;;;;;9.86;100.00;101894.66;5107811;28;20061;-66
2023/05/28 04:45:43;;;;;;;12.25;8.57;;;;;;;9.92;100.00;101897.56;5089886;28;20103;-66
2023/05/28 04:48:08;;;;;;;13.90;10.65;;;;;;;9.99;100.00;101901.38;5084788;28;20463;-66
2023/05/28 04:50:35;;;;;;;16.52;10.50;;;;;;;10.06;100.00;101898.28;5102924;28;20039;-66
2023/05/28 04:53:00;;;;;;;14.43;9.85;;;;;;;10.14;100.00;101895.19;5077070;28;20059;-65
2023/05/28 04:55:25;;;;;;;16.00;9.82;;;;;;;10.23;100.00;101887.91;5091113;28;20058;-65
2023/05/28 04:57:51;;;;;;;19.33;10.25;;;;;;;10.32;100.00;101896.13;5089927;28;20161;-66
2023/05/28 05:00:17;;;;;;;16.48;9.57;;;;;;;10.41;100.00;101895.69;5090662;28;20109;-66
2023/05/28 05:02:42;;;;;;;16.42;9.88;;;;;;;10.51;100.00;101896.16;5090051;28;20044;-66
2023/05/28 05:05:07;;;;;;;15.18;10.15;;;;;;;10.60;100.00;101891.44;5090995;28;20016;-66
2023/05/28 05:07:37;;;;;;;16.45;9.50;;;;;;;10.71;100.00;101898.84;5080120;28;20394;-65
2023/05/28 05:10:06;;;;;;;16.58;9.57;;;;;;;10.80;100.00;101895.00;5096556;28;20039;-66
2023/05/28 05:12:32;;;;;;;16.92;8.98;;;;;;;10.91;100.00;101899.81;5085329;28;20915;-66
2023/05/28 05:14:57;;;;;;;16.02;8.93;;;;;;;11.00;100.00;101894.16;5093400;28;20020;-66
2023/05/28 05:17:22;;;;;;;15.15;9.45;;;;;;;11.11;100.00;101897.25;5089358;28;20031;-66
2023/05/28 05:19:47;;;;;;;16.70;9.68;;;;;;;11.23;100.00;101897.84;5091136;28;20375;-66
2023/05/28 05:22:13;;;;;;;15.75;8.90;;;;;;;11.32;100.00;101899.97;5081360;28;20031;-67
2023/05/28 05:24:38;;;;;;;15.27;9.43;;;;;;;11.42;100.00;101903.88;5088116;28;20023;-66
2023/05/28 05:27:04;;;;;;;13.95;9.38;;;;;;;11.54;100.00;101908.72;5081516;28;20138;-66
2023/05/28 05:29:29;;;;;;;18.27;9.77;;;;;;;11.64;100.00;101902.22;5092463;28;20052;-66
2023/05/28 05:31:54;;;;;;;18.48;9.90;;;;;;;11.74;100.00;101904.44;5095618;28;20020;-66
2023/05/28 05:34:20;;;;;;;14.88;9.65;;;;;;;11.86;100.00;101908.38;5098341;28;20043;-66
2023/05/28 05:36:45;;;;;;;15.80;9.38;;;;;;;11.98;100.00;101906.31;5083850;28;20024;-66
2023/05/28 05:39:10;;;;;;;13.48;9.15;;;;;;;12.12;100.00;101908.66;5099653;28;20019;-66
2023/05/28 05:41:35;;;;;;;15.90;9.80;;;;;;;12.25;100.00;101912.66;5096313;27;20240;-66
2023/05/28 05:44:01;;;;;;;16.15;10.13;;;;;;;12.40;100.00;101921.91;5100760;28;20019;-66
2023/05/28 05:46:26;;;;;;;15.07;10.27;;;;;;;12.51;100.00;101924.97;5101247;28;20499;-66
2023/05/28 05:48:51;;;;;;;14.57;9.15;;;;;;;12.63;100.00;101920.25;5098059;28;20024;-66
2023/05/28 05:51:18;;;;;;;14.77;9.00;;;;;;;12.75;100.00;101919.91;5098887;28;20058;-66
2023/05/28 05:53:44;;;;;;;11.75;8.60;;;;;;;12.90;100.00;101926.53;5091032;28;20379;-66
2023/05/28 05:56:09;;;;;;;13.02;8.30;;;;;;;13.05;100.00;101929.75;5087966;28;20023;-66
2023/05/28 05:58:35;;;;;;;11.40;8.60;;;;;;;13.20;100.00;101925.97;5095796;28;20019;-66
2023/05/28 06:01:00;;;;;;;19.98;10.30;;;;;;;13.35;100.00;101920.44;5092206;28;20174;-66
2023/05/28 06:03:27;;;;;;;16.40;9.45;;;;;;;13.44;100.00;101923.38;5096372;28;20345;-66
2023/05/28 06:05:53;;;;;;;14.02;8.20;;;;;;;13.60;100.00;101928.31;5095754;28;20046;-66
2023/05/28 06:08:18;;;;;;;14.65;8.75;;;;;;;13.78;100.00;101928.13;5085701;28;20024;-66
2023/05/28 06:10:43;;;;;;;14.75;8.98;;;;;;;13.97;100.00;101918.34;5079019;28;20088;-66
2023/05/28 06:13:09;;;;;;;15.45;9.02;;;;;;;14.13;100.00;101920.66;5087204;28;20028;-66
2023/05/28 06:15:34;;;;;;;11.70;8.10;;;;;;;14.28;100.00;101924.63;5088540;28;20047;-67
2023/05/28 06:18:00;;;;;;;13.73;8.93;;;;;;;14.40;100.00;101921.53;5087582;28;20103;-66
2023/05/28 06:20:27;;;;;;;14.18;9.02;;;;;;;14.48;100.00;101924.41;5088924;28;20028;-66
2023/05/28 06:22:52;;;;;;;10.73;8.35;;;;;;;14.57;100.00;101924.69;5087635;28;20039;-66
2023/05/28 06:25:18;;;;;;;15.45;8.18;;;;;;;14.68;100.00;101925.03;5075120;28;20391;-66
2023/05/28 06:27:43;;;;;;;16.58;9.38;;;;;;;14.86;100.00;101923.88;5081773;28;20027;-66
2023/05/28 06:30:10;;;;;;;12.60;8.55;;;;;;;15.03;100.00;101923.53;5083512;28;20404;-66
2023/05/28 06:32:35;;;;;;;14.18;8.75;;;;;;;15.21;100.00;101915.38;5082497;28;20047;-67
2023/05/28 06:35:01;;;;;;;15.38;9.63;;;;;;;15.34;100.00;101911.41;5074253;28;20027;-66
2023/05/28 06:37:26;;;;;;;13.98;9.60;;;;;;;15.43;100.00;101916.00;5083328;28;20032;-67
2023/05/28 06:39:52;;;;;;;13.75;9.10;;;;;;;15.55;100.00;101905.91;5075697;28;20524;-66
2023/05/28 06:42:18;;;;;;;14.50;8.93;;;;;;;15.71;100.00;101911.56;5082924;28;20027;-67
2023/05/28 06:44:43;;;;;;;11.85;8.35;;;;;;;15.89;100.00;101916.41;5074660;28;20527;-67
2023/05/28 06:47:09;;;;;;;11.20;7.93;;;;;;;16.13;100.00;101911.81;5087160;28;20078;-67
2023/05/28 06:49:34;;;;;;;14.93;8.43;;;;;;;16.38;100.00;101907.22;5074932;28;20020;-67
2023/05/28 06:51:59;;;;;;;15.23;8.30;;;;;;;16.60;99.01;101910.34;5075337;28;20032;-67
2023/05/28 06:54:25;;;;;;;11.68;7.43;;;;;;;16.78;97.12;101916.00;5081998;28;20028;-66
2023/05/28 06:56:50;;;;;;;13.35;8.00;;;;;;;16.98;95.04;101907.72;5081504;28;20032;-67
2023/05/28 06:59:15;;;;;;;9.88;7.20;;;;;;;17.21;94.03;101914.34;5076582;28;20181;-67
2023/05/28 07:01:41;;;;;;;11.45;7.25;;;;;;;17.37;88.63;101915.56;5078217;28;20051;-67
2023/05/28 07:04:06;;;;;;;11.27;6.53;;;;;;;17.60;88.36;101909.91;5088995;28;20024;-67
2023/05/28 07:06:32;;;;;;;15.70;7.47;;;;;;;17.86;88.64;101914.78;5079558;28;20032;-67
2023/05/28 07:08:57;;;;;;;12.43;8.02;;;;;;;18.05;85.08;101912.47;5083564;28;20024;-66
2023/05/28 07:11:22;;;;;;;12.50;6.95;;;;;;;18.23;80.80;101915.47;5076286;28;20036;-67
2023/05/28 07:13:48;;;;;;;10.52;7.03;;;;;;;18.39;81.45;101910.47;5086249;28;20481;-67
2023/05/28 07:16:13;;;;;;;13.23;7.13;;;;;;;18.58;79.89;101919.50;5080526;28;20057;-66
2023/05/28 07:18:38;;;;;;;13.27;7.50;;;;;;;18.79;80.13;101914.56;5093875;28;20356;-67
2023/05/28 07:21:05;;;;;;;11.93;6.35;;;;;;;19.02;79.01;101919.25;5080385;28;20031;-67
2023/05/28 07:23:30;;;;;;;9.23;6.63;;;;;;;19.11;74.22;101924.66;5092744;28;20042;-67
2023/05/28 07:25:56;;;;;;;9.13;5.82;;;;;;;19.29;73.95;101925.78;5085728;28;20558;-67
2023/05/28 07:28:21;;;;;;;9.18;5.90;;;;;;;19.38;72.71;101925.91;5095240;28;20047;-67
2023/05/28 07:30:47;;;;;;;11.32;7.10;;;;;;;19.37;71.04;101929.41;5074291;28;20456;-67
2023/05/28 07:33:12;;;;;;;11.40;6.97;;;;;;;19.36;71.95;101931.97;5100059;28;20455;-67
2023/05/28 07:35:37;;;;;;;11.32;6.32;;;;;;;19.26;71.17;101933.63;5071703;28;20024;-67
2023/05/28 07:38:03;;;;;;;10.13;5.85;;;;;;;19.23;72.44;101933.59;5083168;28;20024;-66
2023/05/28 07:40:28;;;;;;;8.38;5.68;;;;;;;19.29;74.05;101933.66;5075436;28;20029;-67
2023/05/28 07:42:53;;;;;;;11.50;6.30;;;;;;;19.46;74.22;101927.75;5082054;28;20024;-67
2023/05/28 07:45:19;;;;;;;12.70;6.32;;;;;;;19.71;73.63;101928.91;5086049;28;20536;-67
2023/05/28 07:47:44;;;;;;;12.43;6.90;;;;;;;19.74;68.89;101925.41;5080061;28;20511;-66
2023/05/28 07:50:10;;;;;;;11.65;6.47;;;;;;;19.75;67.17;101925.44;5070462;28;20040;-66
2023/05/28 07:52:36;;;;;;;10.48;6.22;;;;;;;19.84;67.52;101924.66;5084249;28;20604;-67
2023/05/28 07:55:03;;;;;;;11.65;6.30;;;;;;;19.95;66.38;101924.75;5074433;28;20024;-67
2023/05/28 07:57:28;;;;;;;10.45;6.32;;;;;;;20.12;66.59;101924.06;5083882;28;20036;-67
2023/05/28 07:59:53;;;;;;;10.88;6.60;;;;;;;20.23;65.62;101932.06;5087311;28;20020;-67
2023/05/28 08:02:19;;;;;;;8.82;5.55;;;;;;;20.24;66.46;101926.81;5079475;28;20130;-66
2023/05/28 08:04:44;;;;;;;9.38;5.75;;;;;;;20.27;66.23;101923.34;5081014;28;20089;-67
2023/05/28 08:07:12;;;;;;;9.27;6.55;;;;;;;20.18;65.56;101918.00;5086980;27;20077;-67
2023/05/28 08:09:37;;;;;;;11.60;5.63;;;;;;;20.00;66.64;101935.34;5081637;28;20097;-67
2023/05/28 08:12:02;;;;;;;13.65;6.57;;;;;;;19.82;66.79;101934.28;5086018;28;20098;-67
2023/05/28 08:14:28;;;;;;;13.63;5.72;;;;;;;19.61;66.60;101925.28;5088709;28;20414;-66
2023/05/28 08:16:54;;;;;;;9.52;5.95;;;;;;;19.43;67.55;101929.47;5095089;28;20541;-67
2023/05/28 08:19:20;;;;;;;9.18;4.90;;;;;;;19.31;68.95;101924.06;5084423;28;20113;-67
2023/05/28 08:21:46;;;;;;;11.05;5.63;;;;;;;19.16;72.51;101919.47;5080979;28;20447;-67
2023/05/28 08:24:11;;;;;;;12.93;7.35;;;;;;;19.03;77.38;101929.78;5084844;28;20057;-67
2023/05/28 08:26:37;;;;;;;11.98;7.25;;;;;;;18.93;79.32;101927.91;5086219;28;20047;-67
2023/05/28 08:29:04;;;;;;;12.05;7.82;;;;;;;18.91;80.78;101927.88;5089010;28;20032;-67
2023/05/28 08:31:30;;;;;;;16.98;8.80;;;;;;;18.91;82.72;101920.00;5077080;28;20036;-67
2023/05/28 08:33:55;;;;;;;13.85;8.30;;;;;;;19.13;84.61;101924.69;5090123;28;20039;-67
2023/05/28 08:36:21;;;;;;;11.18;7.60;;;;;;;19.55;84.28;101922.59;5084940;28;20562;-67
2023/05/28 08:38:46;;;;;;;14.02;8.77;;;;;;;20.04;84.61;101916.97;5085274;28;20037;-67
2023/05/28 08:41:12;;;;;;;12.35;7.55;;;;;;;20.55;80.25;101922.66;5088076;28;20024;-67
2023/05/28 08:43:37;;;;;;;13.50;7.20;;;;;;;20.94;74.53;101910.66;5082821;28;20024;-67
2023/05/28 08:46:03;;;;;;;7.88;4.57;;;;;;;21.29;66.07;101911.72;5078685;28;20031;-67
2023/05/28 08:48:31;;;;;;;9.13;5.38;;;;;;;21.71;69.05;101913.59;5082554;28;20497;-67
2023/05/28 08:50:57;;;;;;;10.30;4.10;;;;;;;21.81;56.73;101920.69;5089354;28;20107;-68
2023/05/28 08:53:24;;;;;;;8.13;3.65;;;;;;;22.03;57.75;101912.81;5095818;28;20169;-68
2023/05/28 08:55:49;;;;;;;10.00;4.20;;;;;;;21.82;55.06;101917.16;5096037;28;20027;-67
2023/05/28 08:58:16;;;;;;;9.57;4.38;;;;;;;21.94;56.77;101916.31;5087992;28;20020;-67
2023/05/28 09:00:42;;;;;;;6.93;3.85;;;;;;;22.07;58.65;101911.91;5082836;28;20089;-66
2023/05/28 09:03:07;;;;;;;12.57;4.65;;;;;;;22.21;58.59;101912.81;5093178;28;20131;-67
2023/05/28 09:05:37;;;;;;;7.05;4.18;;;;;;;22.41;57.91;101908.38;5092210;28;20028;-66
2023/05/28 09:08:07;;;;;;;9.35;4.43;;;;;;;22.63;58.56;101908.38;5096257;28;20319;-67
2023/05/28 09:10:34;;;;;;;9.40;4.50;;;;;;;22.73;56.97;101901.34;5090675;28;20388;-67
2023/05/28 09:13:00;;;;;;;8.23;4.35;;;;;;;22.97;56.81;101893.34;5104425;28;20110;-67
2023/05/28 09:15:27;;;;;;;7.40;4.57;;;;;;;23.02;55.69;101892.47;5087279;28;20028;-67
2023/05/28 09:17:52;;;;;;;5.55;4.18;;;;;;;23.10;55.77;101899.44;5105301;28;20031;-67
2023/05/28 09:20:18;;;;;;;8.73;4.65;;;;;;;23.25;54.80;101902.03;5103936;28;20028;-67
2023/05/28 09:22:43;;;;;;;10.10;4.38;;;;;;;23.21;53.64;101899.41;5107015;28;20023;-67
2023/05/28 09:25:10;;;;;;;10.48;4.40;;;;;;;23.21;52.34;101896.75;5088245;28;20872;-67
2023/05/28 09:27:36;;;;;;;9.10;3.88;;;;;;;23.26;52.02;101895.84;5079585;28;20032;-67
2023/05/28 09:30:11;;;;;;;9.40;3.72;;;;;;;23.34;52.10;101892.31;5087298;28;20247;-67
2023/05/28 09:32:37;;;;;;;6.93;3.72;;;;;;;23.44;53.14;101893.19;5088631;28;20371;-67
2023/05/28 09:35:06;;;;;;;7.05;3.80;;;;;;;23.55;52.54;101898.41;5087661;28;20027;-67
2023/05/28 09:37:32;;;;;;;8.68;4.30;;;;;;;23.46;51.32;101897.56;5088745;28;20073;-67
2023/05/28 09:40:03;;;;;;;8.13;3.60;;;;;;;23.57;51.39;101900.13;5081806;28;21444;-67
2023/05/28 09:42:38;;;;;;;7.80;3.78;;;;;;;23.70;50.44;101893.00;5098239;28;20114;-67
2023/05/28 09:45:04;;;;;;;6.10;3.80;;;;;;;23.77;50.98;101895.59;5100756;28;20027;-67
2023/05/28 09:47:29;;;;;;;6.80;3.63;;;;;;;23.79;50.78;101892.06;5106628;28;20035;-67
2023/05/28 09:49:54;;;;;;;6.55;3.83;;;;;;;23.70;49.08;101895.66;5104700;28;20482;-67
2023/05/28 09:52:21;;;;;;;5.32;3.25;;;;;;;23.60;48.17;101899.25;5101009;28;20049;-67
2023/05/28 09:54:55;;;;;;;7.05;3.40;;;;;;;23.49;47.41;101892.25;5083345;28;20020;-67
2023/05/28 09:57:29;;;;;;;7.57;4.07;;;;;;;23.38;48.31;101888.75;5084368;28;20082;-67
2023/05/28 09:59:55;;;;;;;7.70;3.80;;;;;;;23.25;49.33;101890.59;5079273;28;20643;-67
2023/05/28 10:02:50;;;;;;;9.95;4.43;;;;;;;23.18;47.72;101883.56;5089265;28;20047;-67
2023/05/28 10:05:20;;;;;;;8.75;4.30;;;;;;;23.14;51.33;101885.34;5088892;28;20059;-67
2023/05/28 10:07:48;;;;;;;7.03;3.00;;;;;;;23.13;51.06;101888.88;5087808;28;20028;-67
2023/05/28 10:10:15;;;;;;;10.52;3.60;;;;;;;22.99;49.94;101887.16;5090086;28;20020;-67
2023/05/28 10:12:41;;;;;;;7.03;4.18;;;;;;;22.89;47.70;101896.00;5088364;28;20032;-67
2023/05/28 10:15:07;;;;;;;8.02;4.20;;;;;;;22.97;49.36;101885.44;5084542;28;20425;-67
2023/05/28 10:17:34;;;;;;;8.20;4.32;;;;;;;23.03;47.56;101883.63;5094396;28;20024;-67
2023/05/28 10:20:00;;;;;;;9.05;3.50;;;;;;;23.12;49.92;101893.28;5090751;28;20027;-67
2023/05/28 10:22:26;;;;;;;8.50;3.95;;;;;;;23.13;50.12;101889.75;5085763;28;20517;-67
2023/05/28 10:24:52;;;;;;;10.40;3.70;;;;;;;23.23;51.75;101893.25;5087461;28;20027;-67
2023/05/28 10:27:18;;;;;;;9.52;4.07;;;;;;;23.23;48.77;101893.25;5093368;28;20027;-66
2023/05/28 10:29:46;;;;;;;6.38;3.50;;;;;;;23.35;51.11;101891.44;5092096;28;20023;-67
2023/05/28 10:32:15;;;;;;;8.30;4.38;;;;;;;23.20;47.12;101889.72;5097500;28;20068;-67
2023/05/28 10:34:41;;;;;;;6.57;3.78;;;;;;;23.29;47.71;101887.06;5097962;28;20141;-67
2023/05/28 10:37:08;;;;;;;7.45;4.00;;;;;;;23.39;48.73;101886.09;5086008;28;20481;-67
2023/05/28 10:39:41;;;;;;;6.32;3.28;;;;;;;23.45;47.19;101889.63;5093048;28;20099;-67
2023/05/28 10:42:08;;;;;;;9.98;3.58;;;;;;;23.61;47.39;101890.41;5089172;28;20167;-67
2023/05/28 10:45:06;;;;;;;5.50;3.60;;;;;;;23.62;45.01;101897.44;5094801;28;20101;-67
2023/05/28 10:47:54;;;;;;;8.13;3.03;;;;;;;23.63;44.23;101886.00;5085227;28;20093;-67
2023/05/28 10:50:20;;;;;;;6.85;3.33;;;;;;;23.73;47.30;101890.34;5086789;28;20020;-67
2023/05/28 10:53:08;;;;;;;7.55;3.65;;;;;;;23.73;47.74;101895.63;5085757;28;20391;-67
2023/05/28 10:56:04;;;;;;;6.18;3.83;;;;;;;23.79;46.02;101896.47;5068099;28;20555;-67
2023/05/28 10:58:38;;;;;;;6.18;3.63;;;;;;;23.87;47.29;101897.31;5084247;28;20457;-67
2023/05/28 11:01:09;;;;;;;5.70;3.67;;;;;;;23.92;47.58;101890.22;5082595;28;20290;-67
2023/05/28 11:03:57;;;;;;;7.70;3.95;;;;;;;23.95;46.83;101889.31;5085482;28;20059;-67
2023/05/28 11:06:26;;;;;;;6.10;3.63;;;;;;;24.03;45.17;101881.31;5086323;28;20027;-67
2023/05/28 11:08:51;;;;;;;6.20;2.92;;;;;;;24.01;46.09;101888.38;5088965;28;20502;-67
2023/05/28 11:11:18;;;;;;;4.97;3.08;;;;;;;23.94;44.91;101888.44;5086981;28;20027;-67